sensor_id;sensor_type;location;lat;lon;timestamp;temperature;humidity
11122;DHT22;5615;49.304;10.576;2023-01-23T00:02:07;-0.40;99.90
11122;DHT22;5615;49.304;10.576;2023-01-23T00:04:33;-0.40;99.90
11122;DHT22;5615;49.304;10.576;2023-01-23T00:07:00;-0.40;99.90
11122;DHT22;5615;49.304;10.576;2023-01-23T00:09:29;-0.40;99.90
11122;DHT22;5615;49.304;10.576;2023-01-23T00:11:56;-0.40;99.90
11122;DHT22;5615;49.304;10.576;2023-01-23T00:14:22;-0.40;99.90
11122;DHT22;5615;49.304;10.576;2023-01-23T00:16:49;-0.30;99.90
11122;DHT22;5615;49.304;10.576;2023-01-23T00:19:16;-0.30;99.90
11122;DHT22;5615;49.304;10.576;2023-01-23T00:21:42;-0.30;99.90
11122;DHT22;5615;49.304;10.576;2023-01-23T00:24:10;-0.40;99.90
11122;DHT22;5615;49.304;10.576;2023-01-23T00:26:38;-0.40;99.90
11122;DHT22;5615;49.304;10.576;2023-01-23T00:29:05;-0.40;99.90
11122;DHT22;5615;49.304;10.576;2023-01-23T00:31:34;-0.40;99.90
11122;DHT22;5615;49.304;10.576;2023-01-23T00:34:04;-0.40;99.90
11122;DHT22;5615;49.304;10.576;2023-01-23T00:36:32;-0.40;99.90
11122;DHT22;5615;49.304;10.576;2023-01-23T00:38:59;-0.40;99.90
11122;DHT22;5615;49.304;10.576;2023-01-23T00:41:26;-0.40;99.90
11122;DHT22;5615;49.304;10.576;2023-01-23T00:43:54;-0.40;99.90
11122;DHT22;5615;49.304;10.576;2023-01-23T00:46:21;-0.40;99.90
11122;DHT22;5615;49.304;10.576;2023-01-23T00:48:48;-0.40;99.90
11122;DHT22;5615;49.304;10.576;2023-01-23T00:51:15;-0.40;99.90
11122;DHT22;5615;49.304;10.576;2023-01-23T00:53:43;-0.40;99.90
11122;DHT22;5615;49.304;10.576;2023-01-23T00:56:09;-0.40;99.90
11122;DHT22;5615;49.304;10.576;2023-01-23T00:58:36;-0.40;99.90
11122;DHT22;5615;49.304;10.576;2023-01-23T01:01:06;-0.40;99.90
11122;DHT22;5615;49.304;10.576;2023-01-23T01:03:33;-0.40;99.90
11122;DHT22;5615;49.304;10.576;2023-01-23T01:06:00;-0.40;99.90
11122;DHT22;5615;49.304;10.576;2023-01-23T01:08:27;-0.30;99.90
11122;DHT22;5615;49.304;10.576;2023-01-23T01:10:53;-0.40;99.90
11122;DHT22;5615;49.304;10.576;2023-01-23T01:13:20;-0.40;99.90
11122;DHT22;5615;49.304;10.576;2023-01-23T01:15:48;-0.40;99.90
11122;DHT22;5615;49.304;10.576;2023-01-23T01:18:16;-0.40;99.90
11122;DHT22;5615;49.304;10.576;2023-01-23T01:20:44;-0.40;99.90
11122;DHT22;5615;49.304;10.576;2023-01-23T01:23:11;-0.40;99.90
11122;DHT22;5615;49.304;10.576;2023-01-23T01:25:38;-0.40;99.90
11122;DHT22;5615;49.304;10.576;2023-01-23T01:28:05;-0.40;99.90
11122;DHT22;5615;49.304;10.576;2023-01-23T01:30:32;-0.40;99.90
11122;DHT22;5615;49.304;10.576;2023-01-23T01:32:59;-0.40;99.90
11122;DHT22;5615;49.304;10.576;2023-01-23T01:35:27;-0.40;99.90
11122;DHT22;5615;49.304;10.576;2023-01-23T01:37:53;-0.40;99.90
11122;DHT22;5615;49.304;10.576;2023-01-23T01:40:23;-0.40;99.90
11122;DHT22;5615;49.304;10.576;2023-01-23T01:42:55;-0.40;99.90
11122;DHT22;5615;49.304;10.576;2023-01-23T01:48:30;-0.40;99.90
11122;DHT22;5615;49.304;10.576;2023-01-23T01:50:59;-0.40;99.90
11122;DHT22;5615;49.304;10.576;2023-01-23T01:53:28;-0.30;99.90
11122;DHT22;5615;49.304;10.576;2023-01-23T01:55:56;-0.30;99.90
11122;DHT22;5615;49.304;10.576;2023-01-23T01:58:24;-0.40;99.90
11122;DHT22;5615;49.304;10.576;2023-01-23T02:00:51;-0.40;99.90
11122;DHT22;5615;49.304;10.576;2023-01-23T02:03:18;-0.40;99.90
11122;DHT22;5615;49.304;10.576;2023-01-23T02:05:47;-0.40;99.90
11122;DHT22;5615;49.304;10.576;2023-01-23T02:08:21;-0.40;99.90
11122;DHT22;5615;49.304;10.576;2023-01-23T02:10:48;-0.40;99.90
11122;DHT22;5615;49.304;10.576;2023-01-23T02:13:24;-0.40;99.90
11122;DHT22;5615;49.304;10.576;2023-01-23T02:15:55;-0.40;99.90
11122;DHT22;5615;49.304;10.576;2023-01-23T02:18:22;-0.40;99.90
11122;DHT22;5615;49.304;10.576;2023-01-23T02:20:51;-0.40;99.90
11122;DHT22;5615;49.304;10.576;2023-01-23T02:23:25;-0.40;99.90
11122;DHT22;5615;49.304;10.576;2023-01-23T02:25:59;-0.40;99.90
11122;DHT22;5615;49.304;10.576;2023-01-23T02:28:36;-0.40;99.90
11122;DHT22;5615;49.304;10.576;2023-01-23T02:31:04;-0.40;99.90
11122;DHT22;5615;49.304;10.576;2023-01-23T02:33:50;-0.40;99.90
11122;DHT22;5615;49.304;10.576;2023-01-23T02:36:18;-0.40;99.90
11122;DHT22;5615;49.304;10.576;2023-01-23T02:38:50;-0.40;99.90
11122;DHT22;5615;49.304;10.576;2023-01-23T02:41:24;-0.30;99.90
11122;DHT22;5615;49.304;10.576;2023-01-23T02:43:54;-0.40;99.90
11122;DHT22;5615;49.304;10.576;2023-01-23T02:46:23;-0.40;99.90
11122;DHT22;5615;49.304;10.576;2023-01-23T02:48:49;-0.40;99.90
11122;DHT22;5615;49.304;10.576;2023-01-23T02:51:16;-0.40;99.90
11122;DHT22;5615;49.304;10.576;2023-01-23T02:53:43;-0.40;99.90
11122;DHT22;5615;49.304;10.576;2023-01-23T02:56:09;-0.40;99.90
11122;DHT22;5615;49.304;10.576;2023-01-23T02:58:37;-0.40;99.90
11122;DHT22;5615;49.304;10.576;2023-01-23T03:01:36;-0.40;99.90
11122;DHT22;5615;49.304;10.576;2023-01-23T03:04:03;-0.40;99.90
11122;DHT22;5615;49.304;10.576;2023-01-23T03:06:31;-0.40;99.90
11122;DHT22;5615;49.304;10.576;2023-01-23T03:09:02;-0.40;99.90
11122;DHT22;5615;49.304;10.576;2023-01-23T03:11:30;-0.40;99.90
11122;DHT22;5615;49.304;10.576;2023-01-23T03:13:58;-0.40;99.90
11122;DHT22;5615;49.304;10.576;2023-01-23T03:16:24;-0.40;99.90
11122;DHT22;5615;49.304;10.576;2023-01-23T03:18:51;-0.40;99.90
11122;DHT22;5615;49.304;10.576;2023-01-23T03:21:17;-0.40;99.90
11122;DHT22;5615;49.304;10.576;2023-01-23T03:23:44;-0.40;99.90
11122;DHT22;5615;49.304;10.576;2023-01-23T03:26:12;-0.30;99.90
11122;DHT22;5615;49.304;10.576;2023-01-23T03:28:39;-0.30;99.90
11122;DHT22;5615;49.304;10.576;2023-01-23T03:31:24;-0.30;99.90
11122;DHT22;5615;49.304;10.576;2023-01-23T03:33:51;-0.30;99.90
11122;DHT22;5615;49.304;10.576;2023-01-23T03:36:17;-0.30;99.90
11122;DHT22;5615;49.304;10.576;2023-01-23T03:38:44;-0.30;99.90
11122;DHT22;5615;49.304;10.576;2023-01-23T03:41:25;-0.30;99.90
11122;DHT22;5615;49.304;10.576;2023-01-23T03:43:52;-0.30;99.90
11122;DHT22;5615;49.304;10.576;2023-01-23T03:46:18;-0.20;99.90
11122;DHT22;5615;49.304;10.576;2023-01-23T03:48:46;-0.30;99.90
11122;DHT22;5615;49.304;10.576;2023-01-23T03:51:13;-0.30;99.90
11122;DHT22;5615;49.304;10.576;2023-01-23T03:53:40;-0.30;99.90
11122;DHT22;5615;49.304;10.576;2023-01-23T03:56:06;-0.30;99.90
11122;DHT22;5615;49.304;10.576;2023-01-23T03:58:33;-0.30;99.90
11122;DHT22;5615;49.304;10.576;2023-01-23T04:01:00;-0.30;99.90
11122;DHT22;5615;49.304;10.576;2023-01-23T04:03:28;-0.30;99.90
11122;DHT22;5615;49.304;10.576;2023-01-23T04:05:56;-0.30;99.90
11122;DHT22;5615;49.304;10.576;2023-01-23T04:08:23;-0.30;99.90
11122;DHT22;5615;49.304;10.576;2023-01-23T04:10:50;-0.30;99.90
11122;DHT22;5615;49.304;10.576;2023-01-23T04:13:17;-0.20;99.90
11122;DHT22;5615;49.304;10.576;2023-01-23T04:15:43;-0.20;99.90
11122;DHT22;5615;49.304;10.576;2023-01-23T04:18:10;-0.20;99.90
11122;DHT22;5615;49.304;10.576;2023-01-23T04:20:36;-0.20;99.90
11122;DHT22;5615;49.304;10.576;2023-01-23T04:23:04;-0.20;99.90
11122;DHT22;5615;49.304;10.576;2023-01-23T04:25:31;-0.20;99.90
11122;DHT22;5615;49.304;10.576;2023-01-23T04:27:58;-0.20;99.90
11122;DHT22;5615;49.304;10.576;2023-01-23T04:30:24;-0.20;99.90
11122;DHT22;5615;49.304;10.576;2023-01-23T04:32:51;-0.10;99.90
11122;DHT22;5615;49.304;10.576;2023-01-23T04:35:17;-0.20;99.90
11122;DHT22;5615;49.304;10.576;2023-01-23T04:37:44;-0.20;99.90
11122;DHT22;5615;49.304;10.576;2023-01-23T04:40:12;-0.20;99.90
11122;DHT22;5615;49.304;10.576;2023-01-23T04:42:39;-0.20;99.90
11122;DHT22;5615;49.304;10.576;2023-01-23T04:45:07;-0.20;99.90
11122;DHT22;5615;49.304;10.576;2023-01-23T04:47:34;-0.20;99.90
11122;DHT22;5615;49.304;10.576;2023-01-23T04:50:01;-0.20;99.90
11122;DHT22;5615;49.304;10.576;2023-01-23T04:52:27;-0.20;99.90
11122;DHT22;5615;49.304;10.576;2023-01-23T04:54:54;-0.20;99.90
11122;DHT22;5615;49.304;10.576;2023-01-23T04:57:22;-0.20;99.90
11122;DHT22;5615;49.304;10.576;2023-01-23T04:59:49;-0.20;99.90
11122;DHT22;5615;49.304;10.576;2023-01-23T05:02:15;-0.20;99.90
11122;DHT22;5615;49.304;10.576;2023-01-23T05:04:42;-0.30;99.90
11122;DHT22;5615;49.304;10.576;2023-01-23T05:07:09;-0.30;99.90
11122;DHT22;5615;49.304;10.576;2023-01-23T05:09:37;-0.30;99.90
11122;DHT22;5615;49.304;10.576;2023-01-23T05:12:04;-0.30;99.90
11122;DHT22;5615;49.304;10.576;2023-01-23T05:14:32;-0.30;99.90
11122;DHT22;5615;49.304;10.576;2023-01-23T05:16:59;-0.30;99.90
11122;DHT22;5615;49.304;10.576;2023-01-23T05:19:25;-0.30;99.90
11122;DHT22;5615;49.304;10.576;2023-01-23T05:21:52;-0.20;99.90
11122;DHT22;5615;49.304;10.576;2023-01-23T05:24:19;-0.20;99.90
11122;DHT22;5615;49.304;10.576;2023-01-23T05:26:45;-0.30;99.90
11122;DHT22;5615;49.304;10.576;2023-01-23T05:29:12;-0.30;99.90
11122;DHT22;5615;49.304;10.576;2023-01-23T05:31:40;-0.30;99.90
11122;DHT22;5615;49.304;10.576;2023-01-23T05:34:06;-0.30;99.90
11122;DHT22;5615;49.304;10.576;2023-01-23T05:36:33;-0.30;99.90
11122;DHT22;5615;49.304;10.576;2023-01-23T05:38:59;-0.30;99.90
11122;DHT22;5615;49.304;10.576;2023-01-23T05:41:26;-0.30;99.90
11122;DHT22;5615;49.304;10.576;2023-01-23T05:43:53;-0.30;99.90
11122;DHT22;5615;49.304;10.576;2023-01-23T05:46:19;-0.30;99.90
11122;DHT22;5615;49.304;10.576;2023-01-23T05:48:49;-0.30;99.90
11122;DHT22;5615;49.304;10.576;2023-01-23T05:51:16;-0.30;99.90
11122;DHT22;5615;49.304;10.576;2023-01-23T05:53:43;-0.30;99.90
11122;DHT22;5615;49.304;10.576;2023-01-23T05:56:09;-0.30;99.90
11122;DHT22;5615;49.304;10.576;2023-01-23T05:58:36;-0.30;99.90
11122;DHT22;5615;49.304;10.576;2023-01-23T06:01:03;-0.40;99.90
11122;DHT22;5615;49.304;10.576;2023-01-23T06:03:30;-0.30;99.90
11122;DHT22;5615;49.304;10.576;2023-01-23T06:05:59;-0.30;99.90
11122;DHT22;5615;49.304;10.576;2023-01-23T06:08:26;-0.30;99.90
11122;DHT22;5615;49.304;10.576;2023-01-23T06:10:52;-0.30;99.90
11122;DHT22;5615;49.304;10.576;2023-01-23T06:13:22;-0.30;99.90
11122;DHT22;5615;49.304;10.576;2023-01-23T06:15:49;-0.30;99.90
11122;DHT22;5615;49.304;10.576;2023-01-23T06:18:16;-0.30;99.90
11122;DHT22;5615;49.304;10.576;2023-01-23T06:20:42;-0.30;99.90
11122;DHT22;5615;49.304;10.576;2023-01-23T06:23:10;-0.30;99.90
11122;DHT22;5615;49.304;10.576;2023-01-23T06:25:37;-0.40;99.90
11122;DHT22;5615;49.304;10.576;2023-01-23T06:28:04;-0.30;99.90
11122;DHT22;5615;49.304;10.576;2023-01-23T06:30:31;-0.40;99.90
11122;DHT22;5615;49.304;10.576;2023-01-23T06:32:58;-0.40;99.90
11122;DHT22;5615;49.304;10.576;2023-01-23T06:35:25;-0.30;99.90
11122;DHT22;5615;49.304;10.576;2023-01-23T06:37:52;-0.40;99.90
11122;DHT22;5615;49.304;10.576;2023-01-23T06:40:20;-0.40;99.90
11122;DHT22;5615;49.304;10.576;2023-01-23T06:42:46;-0.40;99.90
11122;DHT22;5615;49.304;10.576;2023-01-23T06:45:15;-0.40;99.90
11122;DHT22;5615;49.304;10.576;2023-01-23T06:47:42;-0.40;99.90
11122;DHT22;5615;49.304;10.576;2023-01-23T06:50:09;-0.40;99.90
11122;DHT22;5615;49.304;10.576;2023-01-23T06:52:36;-0.40;99.90
11122;DHT22;5615;49.304;10.576;2023-01-23T06:55:03;-0.40;99.90
11122;DHT22;5615;49.304;10.576;2023-01-23T06:57:32;-0.40;99.90
11122;DHT22;5615;49.304;10.576;2023-01-23T06:59:59;-0.40;99.90
11122;DHT22;5615;49.304;10.576;2023-01-23T07:02:26;-0.40;99.90
11122;DHT22;5615;49.304;10.576;2023-01-23T07:04:52;-0.40;99.90
11122;DHT22;5615;49.304;10.576;2023-01-23T07:07:19;-0.40;99.90
11122;DHT22;5615;49.304;10.576;2023-01-23T07:09:46;-0.40;99.90
11122;DHT22;5615;49.304;10.576;2023-01-23T07:12:12;-0.40;99.90
11122;DHT22;5615;49.304;10.576;2023-01-23T07:14:40;-0.40;99.90
11122;DHT22;5615;49.304;10.576;2023-01-23T07:17:07;-0.40;99.90
11122;DHT22;5615;49.304;10.576;2023-01-23T07:19:33;-0.40;99.90
11122;DHT22;5615;49.304;10.576;2023-01-23T07:22:00;-0.40;99.90
11122;DHT22;5615;49.304;10.576;2023-01-23T07:24:27;-0.40;99.90
11122;DHT22;5615;49.304;10.576;2023-01-23T07:26:56;-0.40;99.90
11122;DHT22;5615;49.304;10.576;2023-01-23T07:29:22;-0.30;99.90
11122;DHT22;5615;49.304;10.576;2023-01-23T07:31:50;-0.40;99.90
11122;DHT22;5615;49.304;10.576;2023-01-23T07:34:17;-0.30;99.90
11122;DHT22;5615;49.304;10.576;2023-01-23T07:36:44;-0.30;99.90
11122;DHT22;5615;49.304;10.576;2023-01-23T07:39:10;-0.30;99.90
11122;DHT22;5615;49.304;10.576;2023-01-23T07:41:37;-0.30;99.90
11122;DHT22;5615;49.304;10.576;2023-01-23T07:44:03;-0.30;99.90
11122;DHT22;5615;49.304;10.576;2023-01-23T07:46:30;-0.20;99.90
11122;DHT22;5615;49.304;10.576;2023-01-23T07:48:58;-0.20;99.90
11122;DHT22;5615;49.304;10.576;2023-01-23T07:51:24;-0.20;99.90
11122;DHT22;5615;49.304;10.576;2023-01-23T07:53:51;-0.20;99.90
11122;DHT22;5615;49.304;10.576;2023-01-23T07:56:18;-0.20;99.90
11122;DHT22;5615;49.304;10.576;2023-01-23T07:58:48;-0.10;99.90
11122;DHT22;5615;49.304;10.576;2023-01-23T08:01:15;-0.10;99.90
11122;DHT22;5615;49.304;10.576;2023-01-23T08:03:43;-0.10;99.90
11122;DHT22;5615;49.304;10.576;2023-01-23T08:06:11;-0.10;99.90
11122;DHT22;5615;49.304;10.576;2023-01-23T08:08:38;-0.10;99.90
11122;DHT22;5615;49.304;10.576;2023-01-23T08:11:05;-0.10;99.90
11122;DHT22;5615;49.304;10.576;2023-01-23T08:13:32;-0.10;99.90
11122;DHT22;5615;49.304;10.576;2023-01-23T08:15:58;-0.10;99.90
11122;DHT22;5615;49.304;10.576;2023-01-23T08:18:25;0.00;99.90
11122;DHT22;5615;49.304;10.576;2023-01-23T08:20:52;0.00;99.90
11122;DHT22;5615;49.304;10.576;2023-01-23T08:23:23;0.00;99.90
11122;DHT22;5615;49.304;10.576;2023-01-23T08:25:52;0.00;99.90
11122;DHT22;5615;49.304;10.576;2023-01-23T08:28:18;0.00;99.90
11122;DHT22;5615;49.304;10.576;2023-01-23T08:30:45;0.00;99.90
11122;DHT22;5615;49.304;10.576;2023-01-23T08:33:12;0.00;99.90
11122;DHT22;5615;49.304;10.576;2023-01-23T08:35:38;-0.10;99.90
11122;DHT22;5615;49.304;10.576;2023-01-23T08:38:05;0.00;99.90
11122;DHT22;5615;49.304;10.576;2023-01-23T08:40:36;-0.10;99.90
11122;DHT22;5615;49.304;10.576;2023-01-23T08:43:02;0.00;99.90
11122;DHT22;5615;49.304;10.576;2023-01-23T08:45:29;-0.10;99.90
11122;DHT22;5615;49.304;10.576;2023-01-23T08:47:56;0.00;99.90
11122;DHT22;5615;49.304;10.576;2023-01-23T08:50:23;0.00;99.90
11122;DHT22;5615;49.304;10.576;2023-01-23T08:52:50;0.00;99.90
11122;DHT22;5615;49.304;10.576;2023-01-23T08:55:16;0.00;99.90
11122;DHT22;5615;49.304;10.576;2023-01-23T08:57:44;0.00;99.90
11122;DHT22;5615;49.304;10.576;2023-01-23T09:00:12;0.10;99.90
11122;DHT22;5615;49.304;10.576;2023-01-23T09:02:39;0.10;99.90
11122;DHT22;5615;49.304;10.576;2023-01-23T09:05:06;0.20;99.90
11122;DHT22;5615;49.304;10.576;2023-01-23T09:07:33;0.20;99.90
11122;DHT22;5615;49.304;10.576;2023-01-23T09:10:01;0.30;99.90
11122;DHT22;5615;49.304;10.576;2023-01-23T09:12:28;0.40;99.90
11122;DHT22;5615;49.304;10.576;2023-01-23T09:14:56;0.50;99.90
11122;DHT22;5615;49.304;10.576;2023-01-23T09:17:22;0.60;99.90
11122;DHT22;5615;49.304;10.576;2023-01-23T09:19:49;0.70;99.90
11122;DHT22;5615;49.304;10.576;2023-01-23T09:22:16;0.80;99.90
11122;DHT22;5615;49.304;10.576;2023-01-23T09:24:42;0.80;99.90
11122;DHT22;5615;49.304;10.576;2023-01-23T09:27:09;0.80;99.90
11122;DHT22;5615;49.304;10.576;2023-01-23T09:29:36;0.80;99.90
11122;DHT22;5615;49.304;10.576;2023-01-23T09:32:04;0.80;99.90
11122;DHT22;5615;49.304;10.576;2023-01-23T09:34:31;0.80;99.90
11122;DHT22;5615;49.304;10.576;2023-01-23T09:36:58;0.80;99.90
11122;DHT22;5615;49.304;10.576;2023-01-23T09:39:24;0.80;99.90
11122;DHT22;5615;49.304;10.576;2023-01-23T09:41:51;0.80;99.90
11122;DHT22;5615;49.304;10.576;2023-01-23T09:44:20;0.80;99.90
11122;DHT22;5615;49.304;10.576;2023-01-23T09:46:50;0.80;99.90
11122;DHT22;5615;49.304;10.576;2023-01-23T09:49:24;0.90;99.90
11122;DHT22;5615;49.304;10.576;2023-01-23T09:51:57;0.90;99.90
11122;DHT22;5615;49.304;10.576;2023-01-23T09:54:32;0.80;99.90
11122;DHT22;5615;49.304;10.576;2023-01-23T09:57:03;0.90;99.90
11122;DHT22;5615;49.304;10.576;2023-01-23T09:59:35;1.10;99.90
11122;DHT22;5615;49.304;10.576;2023-01-23T10:02:07;1.20;99.90
11122;DHT22;5615;49.304;10.576;2023-01-23T10:04:38;1.20;99.90
11122;DHT22;5615;49.304;10.576;2023-01-23T10:13:09;1.50;99.90
11122;DHT22;5615;49.304;10.576;2023-01-23T10:15:59;1.50;99.90
11122;DHT22;5615;49.304;10.576;2023-01-23T10:18:32;1.70;99.90
11122;DHT22;5615;49.304;10.576;2023-01-23T10:21:08;1.80;99.90
11122;DHT22;5615;49.304;10.576;2023-01-23T10:23:47;1.80;99.90
11122;DHT22;5615;49.304;10.576;2023-01-23T10:26:17;1.80;99.90
11122;DHT22;5615;49.304;10.576;2023-01-23T10:28:45;1.80;99.90
11122;DHT22;5615;49.304;10.576;2023-01-23T10:31:25;1.90;99.90
11122;DHT22;5615;49.304;10.576;2023-01-23T10:33:59;1.90;99.90
11122;DHT22;5615;49.304;10.576;2023-01-23T10:36:34;1.80;99.90
11122;DHT22;5615;49.304;10.576;2023-01-23T10:39:04;1.80;99.90
11122;DHT22;5615;49.304;10.576;2023-01-23T10:41:32;1.80;99.90
11122;DHT22;5615;49.304;10.576;2023-01-23T10:43:59;1.90;99.90
11122;DHT22;5615;49.304;10.576;2023-01-23T10:46:29;1.90;99.90
11122;DHT22;5615;49.304;10.576;2023-01-23T10:48:58;1.90;99.90
11122;DHT22;5615;49.304;10.576;2023-01-23T10:51:27;1.90;99.90
11122;DHT22;5615;49.304;10.576;2023-01-23T10:54:16;1.90;99.90
11122;DHT22;5615;49.304;10.576;2023-01-23T10:56:52;2.00;99.90
11122;DHT22;5615;49.304;10.576;2023-01-23T10:59:26;2.00;99.90
11122;DHT22;5615;49.304;10.576;2023-01-23T11:01:56;2.00;99.90
11122;DHT22;5615;49.304;10.576;2023-01-23T11:04:25;2.10;99.90
11122;DHT22;5615;49.304;10.576;2023-01-23T11:07:06;2.10;99.90
11122;DHT22;5615;49.304;10.576;2023-01-23T11:09:47;2.10;99.90
11122;DHT22;5615;49.304;10.576;2023-01-23T11:12:16;2.10;99.90
11122;DHT22;5615;49.304;10.576;2023-01-23T11:14:43;2.00;99.90
11122;DHT22;5615;49.304;10.576;2023-01-23T11:17:16;2.10;99.90
11122;DHT22;5615;49.304;10.576;2023-01-23T11:19:46;2.30;99.90
11122;DHT22;5615;49.304;10.576;2023-01-23T11:22:30;2.30;99.90
11122;DHT22;5615;49.304;10.576;2023-01-23T11:24:59;2.40;99.90
11122;DHT22;5615;49.304;10.576;2023-01-23T11:27:55;2.40;99.90
11122;DHT22;5615;49.304;10.576;2023-01-23T11:30:31;2.30;99.90
11122;DHT22;5615;49.304;10.576;2023-01-23T11:33:07;2.40;99.90
11122;DHT22;5615;49.304;10.576;2023-01-23T11:35:53;2.40;99.90
11122;DHT22;5615;49.304;10.576;2023-01-23T11:38:25;2.20;99.90
11122;DHT22;5615;49.304;10.576;2023-01-23T11:40:53;2.30;99.90
11122;DHT22;5615;49.304;10.576;2023-01-23T11:43:20;2.50;99.90
11122;DHT22;5615;49.304;10.576;2023-01-23T11:46:02;2.70;99.90
11122;DHT22;5615;49.304;10.576;2023-01-23T11:48:44;2.90;99.90
11122;DHT22;5615;49.304;10.576;2023-01-23T11:51:19;3.00;99.90
11122;DHT22;5615;49.304;10.576;2023-01-23T11:53:55;3.20;99.90
11122;DHT22;5615;49.304;10.576;2023-01-23T11:56:41;3.40;99.90
11122;DHT22;5615;49.304;10.576;2023-01-23T12:02:59;3.60;99.90
11122;DHT22;5615;49.304;10.576;2023-01-23T12:09:01;3.20;99.90
11122;DHT22;5615;49.304;10.576;2023-01-23T12:11:37;3.30;99.90
11122;DHT22;5615;49.304;10.576;2023-01-23T12:14:13;3.30;99.90
11122;DHT22;5615;49.304;10.576;2023-01-23T12:17:01;3.50;99.90
11122;DHT22;5615;49.304;10.576;2023-01-23T12:19:52;3.50;99.90
11122;DHT22;5615;49.304;10.576;2023-01-23T12:22:31;3.70;99.90
11122;DHT22;5615;49.304;10.576;2023-01-23T12:25:13;3.60;99.90
11122;DHT22;5615;49.304;10.576;2023-01-23T12:27:45;3.30;99.90
11122;DHT22;5615;49.304;10.576;2023-01-23T12:33:35;3.10;99.90
11122;DHT22;5615;49.304;10.576;2023-01-23T12:36:17;2.80;99.90
11122;DHT22;5615;49.304;10.576;2023-01-23T12:38:54;2.80;99.90
11122;DHT22;5615;49.304;10.576;2023-01-23T12:41:30;3.10;99.90
11122;DHT22;5615;49.304;10.576;2023-01-23T12:44:07;3.10;99.90
11122;DHT22;5615;49.304;10.576;2023-01-23T12:46:41;3.20;99.90
11122;DHT22;5615;49.304;10.576;2023-01-23T12:49:18;3.40;99.90
11122;DHT22;5615;49.304;10.576;2023-01-23T12:51:49;3.50;99.90
11122;DHT22;5615;49.304;10.576;2023-01-23T12:54:23;3.30;99.90
11122;DHT22;5615;49.304;10.576;2023-01-23T12:56:53;3.10;99.90
11122;DHT22;5615;49.304;10.576;2023-01-23T12:59:25;2.90;99.90
11122;DHT22;5615;49.304;10.576;2023-01-23T13:01:59;2.70;99.90
11122;DHT22;5615;49.304;10.576;2023-01-23T13:04:41;2.50;99.90
11122;DHT22;5615;49.304;10.576;2023-01-23T13:07:25;2.60;99.90
11122;DHT22;5615;49.304;10.576;2023-01-23T13:10:15;2.90;99.90
11122;DHT22;5615;49.304;10.576;2023-01-23T13:12:45;2.90;99.90
11122;DHT22;5615;49.304;10.576;2023-01-23T13:15:31;3.00;99.90
11122;DHT22;5615;49.304;10.576;2023-01-23T13:17:59;3.10;99.90
11122;DHT22;5615;49.304;10.576;2023-01-23T13:20:30;3.00;99.90
11122;DHT22;5615;49.304;10.576;2023-01-23T13:23:26;3.20;99.90
11122;DHT22;5615;49.304;10.576;2023-01-23T13:26:25;3.10;99.90
11122;DHT22;5615;49.304;10.576;2023-01-23T13:28:54;3.10;99.90
11122;DHT22;5615;49.304;10.576;2023-01-23T13:31:33;3.00;99.90
11122;DHT22;5615;49.304;10.576;2023-01-23T13:34:00;2.90;99.90
11122;DHT22;5615;49.304;10.576;2023-01-23T13:36:34;2.80;99.90
11122;DHT22;5615;49.304;10.576;2023-01-23T13:39:26;2.70;99.90
11122;DHT22;5615;49.304;10.576;2023-01-23T13:45:23;2.40;99.90
11122;DHT22;5615;49.304;10.576;2023-01-23T13:48:09;2.40;99.90
11122;DHT22;5615;49.304;10.576;2023-01-23T13:51:02;2.40;99.90
11122;DHT22;5615;49.304;10.576;2023-01-23T13:53:31;2.40;99.90
11122;DHT22;5615;49.304;10.576;2023-01-23T13:56:17;2.60;99.90
11122;DHT22;5615;49.304;10.576;2023-01-23T13:58:59;2.80;99.90
11122;DHT22;5615;49.304;10.576;2023-01-23T14:01:26;2.60;99.90
11122;DHT22;5615;49.304;10.576;2023-01-23T14:04:17;2.60;99.90
11122;DHT22;5615;49.304;10.576;2023-01-23T14:07:02;2.60;99.90
11122;DHT22;5615;49.304;10.576;2023-01-23T14:09:30;2.70;99.90
11122;DHT22;5615;49.304;10.576;2023-01-23T14:11:58;2.70;99.90
11122;DHT22;5615;49.304;10.576;2023-01-23T14:14:32;2.70;99.90
11122;DHT22;5615;49.304;10.576;2023-01-23T14:17:16;2.70;99.90
11122;DHT22;5615;49.304;10.576;2023-01-23T14:19:52;2.70;99.90
11122;DHT22;5615;49.304;10.576;2023-01-23T14:22:20;2.70;99.90
11122;DHT22;5615;49.304;10.576;2023-01-23T14:24:48;2.60;99.90
11122;DHT22;5615;49.304;10.576;2023-01-23T14:27:19;2.70;99.90
11122;DHT22;5615;49.304;10.576;2023-01-23T14:29:56;2.90;99.90
11122;DHT22;5615;49.304;10.576;2023-01-23T14:32:24;2.90;99.90
11122;DHT22;5615;49.304;10.576;2023-01-23T14:34:54;3.30;99.90
11122;DHT22;5615;49.304;10.576;2023-01-23T14:37:21;3.50;99.90
11122;DHT22;5615;49.304;10.576;2023-01-23T14:39:48;3.40;99.90
11122;DHT22;5615;49.304;10.576;2023-01-23T14:42:22;3.20;99.90
11122;DHT22;5615;49.304;10.576;2023-01-23T14:44:50;3.10;99.90
11122;DHT22;5615;49.304;10.576;2023-01-23T14:47:21;3.00;99.90
11122;DHT22;5615;49.304;10.576;2023-01-23T14:49:51;2.60;99.90
11122;DHT22;5615;49.304;10.576;2023-01-23T14:52:23;2.50;99.90
11122;DHT22;5615;49.304;10.576;2023-01-23T14:54:50;2.50;99.90
11122;DHT22;5615;49.304;10.576;2023-01-23T14:57:18;2.40;99.90
11122;DHT22;5615;49.304;10.576;2023-01-23T14:59:46;2.40;99.90
11122;DHT22;5615;49.304;10.576;2023-01-23T15:02:25;2.40;99.90
11122;DHT22;5615;49.304;10.576;2023-01-23T15:05:15;2.30;99.90
11122;DHT22;5615;49.304;10.576;2023-01-23T15:07:44;2.30;99.90
11122;DHT22;5615;49.304;10.576;2023-01-23T15:10:14;2.40;99.90
11122;DHT22;5615;49.304;10.576;2023-01-23T15:12:47;2.60;99.90
11122;DHT22;5615;49.304;10.576;2023-01-23T15:15:17;2.70;99.90
11122;DHT22;5615;49.304;10.576;2023-01-23T15:17:44;2.80;99.90
11122;DHT22;5615;49.304;10.576;2023-01-23T15:20:27;2.80;99.90
11122;DHT22;5615;49.304;10.576;2023-01-23T15:22:55;2.80;99.90
11122;DHT22;5615;49.304;10.576;2023-01-23T15:25:26;2.70;99.90
11122;DHT22;5615;49.304;10.576;2023-01-23T15:27:53;2.60;99.90
11122;DHT22;5615;49.304;10.576;2023-01-23T15:30:36;2.50;99.90
11122;DHT22;5615;49.304;10.576;2023-01-23T15:33:04;2.50;99.90
11122;DHT22;5615;49.304;10.576;2023-01-23T15:35:46;2.30;99.90
11122;DHT22;5615;49.304;10.576;2023-01-23T15:38:15;2.20;99.90
11122;DHT22;5615;49.304;10.576;2023-01-23T15:40:42;2.10;99.90
11122;DHT22;5615;49.304;10.576;2023-01-23T15:43:11;2.10;99.90
11122;DHT22;5615;49.304;10.576;2023-01-23T15:45:38;1.90;99.90
11122;DHT22;5615;49.304;10.576;2023-01-23T15:48:05;1.80;99.90
11122;DHT22;5615;49.304;10.576;2023-01-23T15:50:32;1.60;99.90
11122;DHT22;5615;49.304;10.576;2023-01-23T15:52:58;1.50;99.90
11122;DHT22;5615;49.304;10.576;2023-01-23T15:55:27;1.40;99.90
11122;DHT22;5615;49.304;10.576;2023-01-23T15:57:54;1.20;99.90
11122;DHT22;5615;49.304;10.576;2023-01-23T16:00:23;1.10;99.90
11122;DHT22;5615;49.304;10.576;2023-01-23T16:02:51;1.00;99.90
11122;DHT22;5615;49.304;10.576;2023-01-23T16:05:17;0.90;99.90
11122;DHT22;5615;49.304;10.576;2023-01-23T16:07:45;0.90;99.90
11122;DHT22;5615;49.304;10.576;2023-01-23T16:10:17;0.80;99.90
11122;DHT22;5615;49.304;10.576;2023-01-23T16:12:46;0.80;99.90
11122;DHT22;5615;49.304;10.576;2023-01-23T16:15:15;0.70;99.90
11122;DHT22;5615;49.304;10.576;2023-01-23T16:17:42;0.70;99.90
11122;DHT22;5615;49.304;10.576;2023-01-23T16:20:13;0.60;99.90